CheckWX is a tool to help pilots better visualize weather data.  It is not intended as a substitute for an official pre-flight weather briefing.

13:03:38 UTC

KWRB TAF
Robins AFB Airport
Warner Robins, Georgia, USA
TAF KWRB 160500Z 1605/1711 18006KT 9999 FEW015 SCT050 QNH3003INS BECMG 1610/1611 VRB06KT 8000 BR SCT009 QNH3005INS BECMG 1614/1615 18006KT 9999 NSW FEW050 QNH2995INS BECMG 1708/1709 VRB06KT 8000 BR SCT008 QNH3000INS TX31/1621Z TN19/1611Z

Jun-16@
05:00 UTC

Jun-16 @ 05:00 UTC

Jun-16@
10:00 UTC

Jun-16 @ 10:00 UTC

TAF KWRB 160500Z 1605/1711 18006KT 9999 FEW015 SCT050 QNH3003INS

Expired

Wind
  • 180° at 6 KTS
Cloud Levels
  • Few at 1,500' AGL
  • Scattered at 5,000' AGL

Jun-16@
10:00 UTC

Jun-16 @ 10:00 UTC

Jun-16@
14:00 UTC

Jun-16 @ 14:00 UTC

BECMG 1610/1611 VRB06KT 8000 BR SCT009 QNH3005INS

Becoming

Becoming Conditions expected by Sun, Jun 16, 2019 @ 11:00 UTC

Wind
  • Variable at 6 KTS
Conditions
Mist
Cloud Levels
  • Scattered at 900' AGL

Jun-16@
14:00 UTC

Jun-16 @ 14:00 UTC

Jun-17@
08:00 UTC

Jun-17 @ 08:00 UTC

BECMG 1614/1615 18006KT 9999 NSW FEW050 QNH2995INS

Becoming

Becoming Conditions expected by Sun, Jun 16, 2019 @ 15:00 UTC

Wind
  • 180° at 6 KTS
Conditions
No significant weather
Cloud Levels
  • Few at 5,000' AGL

Jun-17@
08:00 UTC

Jun-17 @ 08:00 UTC

Jun-17@
11:00 UTC

Jun-17 @ 11:00 UTC

BECMG 1708/1709 VRB06KT 8000 BR SCT008 QNH3000INS TX31/1621Z TN19/1611Z

Becoming

Becoming Conditions expected by Mon, Jun 17, 2019 @ 09:00 UTC

Wind
  • Variable at 6 KTS
Conditions
Mist
Cloud Levels
  • Scattered at 800' AGL